WMKK/KUL METAR and TAF weather

Enter ICAO airport designator
Station Type Date Time Source
WMKK METAR 2020/01/23 15:00 UTC NOAA

WMKK 231500Z VRB02KT 9999 FEW030 26/24 Q1012 NOSIG


Station Type Date Time Source
WMKK Decoded METAR 2020/01/23 15:00 UTC NOAA

Sepang/KL International Airport, Malaysia (WMKK) 02-44N 101-42E 22M
Jan 23, 2020 - 10:00 AM EST / 2020.01.23 1500 UTC
Wind: Variable at 2 MPH (2 KT):0
Visibility: greater than 7 mile(s):0
Sky conditions: mostly clear
Temperature: 78 F (26 C)
Dew Point: 75 F (24 C)
Relative Humidity: 88%
Pressure (altimeter): 29.88 in. Hg (1012 hPa)
ob: WMKK 231500Z VRB02KT 9999 FEW030 26/24 Q1012 NOSIG
cycle: 15

Station Type Date Time Source
WMKK TAF 2020/01/23 12:15 UTC NOAA

TAF WMKK 231100Z 2312/2418 26007KT 5000 TSRA FEW017CB SCT018
BECMG 2314/2315 07006KT 9999 FEW026
TEMPO 2409/2413 22008KT 4000 TSRA FEW010 FEW016CB SCT018
BECMG 2415/2416 03005KT

Example: see airport list